createdAt,value
2022-11-16T00:00:05.440Z,3.34
2022-11-16T00:02:54.633Z,3.29
2022-11-16T00:05:27.953Z,3.20
2022-11-16T00:07:57.827Z,3.14
2022-11-16T00:10:25.774Z,3.19
2022-11-16T00:12:53.664Z,3.25
2022-11-16T00:15:21.650Z,3.31
2022-11-16T00:17:49.602Z,3.37
2022-11-16T00:20:17.604Z,3.41
2022-11-16T00:22:45.712Z,3.42
2022-11-16T00:25:13.831Z,3.42
2022-11-16T00:27:41.771Z,3.40
2022-11-16T00:30:10.892Z,3.35
2022-11-16T00:32:38.986Z,3.35
2022-11-16T00:35:07.701Z,3.39
2022-11-16T00:37:35.991Z,3.44
2022-11-16T00:40:04.576Z,3.48
2022-11-16T00:42:32.600Z,3.53
2022-11-16T00:45:00.599Z,3.54
2022-11-16T00:47:28.509Z,3.52
2022-11-16T00:49:56.987Z,3.44
2022-11-16T00:52:24.975Z,3.38
2022-11-16T00:54:54.150Z,3.37
2022-11-16T00:57:22.126Z,3.35
2022-11-16T00:59:51.002Z,3.31
2022-11-16T01:02:19.028Z,3.28
2022-11-16T01:04:47.082Z,3.25
2022-11-16T01:07:15.510Z,3.22
2022-11-16T01:09:43.639Z,3.20
2022-11-16T01:12:12.828Z,3.23
2022-11-16T01:14:43.714Z,3.23
2022-11-16T01:17:14.473Z,3.24
2022-11-16T01:19:42.811Z,3.26
2022-11-16T01:22:10.977Z,3.26
2022-11-16T01:24:39.034Z,3.25
2022-11-16T01:27:07.011Z,3.22
2022-11-16T01:29:37.307Z,3.18
2022-11-16T01:32:05.510Z,3.18
2022-11-16T01:34:34.355Z,3.16
2022-11-16T01:37:08.171Z,3.15
2022-11-16T01:39:39.951Z,3.09
2022-11-16T01:42:18.285Z,3.06
2022-11-16T01:44:46.879Z,3.07
2022-11-16T01:47:18.358Z,3.09
2022-11-16T01:49:52.061Z,3.13
2022-11-16T01:52:26.776Z,3.13
2022-11-16T01:54:55.717Z,3.12
2022-11-16T01:57:39.996Z,3.17
2022-11-16T02:00:11.908Z,3.20
2022-11-16T02:02:43.077Z,3.21
2022-11-16T02:05:22.221Z,3.23
2022-11-16T02:08:39.082Z,3.25
2022-11-16T02:11:42.799Z,3.23
2022-11-16T02:14:28.442Z,3.25
2022-11-16T02:17:19.822Z,3.27
2022-11-16T02:20:10.656Z,3.23
2022-11-16T02:23:06.569Z,3.16
2022-11-16T02:25:46.905Z,3.13
2022-11-16T02:28:35.558Z,3.06
2022-11-16T02:31:08.327Z,2.96
2022-11-16T02:33:41.224Z,2.95
2022-11-16T02:36:13.311Z,2.98
2022-11-16T02:38:52.498Z,2.98
2022-11-16T02:41:23.576Z,2.99
2022-11-16T02:44:00.924Z,3.04
2022-11-16T02:46:36.228Z,3.04
2022-11-16T02:49:12.059Z,3.00
2022-11-16T02:51:42.565Z,3.00
2022-11-16T02:54:15.046Z,3.04
2022-11-16T02:57:35.191Z,3.07
2022-11-16T03:00:05.912Z,3.06
2022-11-16T03:02:49.092Z,3.07
2022-11-16T03:05:41.614Z,3.10
2022-11-16T03:08:12.836Z,3.19
2022-11-16T03:11:03.217Z,3.25
2022-11-16T03:13:35.890Z,3.35
2022-11-16T03:16:11.747Z,3.38
2022-11-16T03:18:41.809Z,3.39
2022-11-16T03:21:23.990Z,3.40
2022-11-16T03:23:52.192Z,3.39
2022-11-16T03:26:26.913Z,3.35
2022-11-16T03:29:04.898Z,3.24
2022-11-16T03:31:45.227Z,3.14
2022-11-16T03:34:20.604Z,3.08
2022-11-16T03:36:51.251Z,3.05
2022-11-16T03:39:26.311Z,2.95
2022-11-16T03:41:56.417Z,2.90
2022-11-16T03:44:24.890Z,2.94
2022-11-16T03:46:52.882Z,2.98
2022-11-16T03:49:22.949Z,3.02
2022-11-16T03:51:52.675Z,3.07
2022-11-16T03:54:20.782Z,3.12
2022-11-16T03:56:49.080Z,3.19
2022-11-16T03:59:16.956Z,3.24
2022-11-16T04:01:46.359Z,3.29
2022-11-16T04:04:34.837Z,3.33
2022-11-16T04:07:23.118Z,3.35
2022-11-16T04:10:09.891Z,3.32
2022-11-16T04:13:03.226Z,3.25
2022-11-16T04:15:49.810Z,3.22
2022-11-16T04:18:36.656Z,3.22
2022-11-16T04:21:24.634Z,3.21
2022-11-16T04:24:11.198Z,3.20
2022-11-16T04:27:00.323Z,3.21
2022-11-16T04:29:29.442Z,3.20
2022-11-16T04:32:16.058Z,3.17
2022-11-16T04:35:03.415Z,3.12
2022-11-16T04:37:49.359Z,3.11
2022-11-16T04:40:24.266Z,3.17
2022-11-16T04:42:57.822Z,3.24
2022-11-16T04:45:46.752Z,3.28
2022-11-16T04:48:18.751Z,3.25
2022-11-16T04:50:48.004Z,3.28
2022-11-16T04:53:17.085Z,3.31
2022-11-16T04:55:50.588Z,3.32
2022-11-16T04:58:19.244Z,3.30
2022-11-16T05:00:47.993Z,3.25
2022-11-16T05:03:16.075Z,3.24
2022-11-16T05:05:45.273Z,3.24
2022-11-16T05:08:13.925Z,3.23
2022-11-16T05:10:41.996Z,3.22
2022-11-16T05:13:10.694Z,3.24
2022-11-16T05:15:39.255Z,3.23
2022-11-16T05:18:07.354Z,3.22
2022-11-16T05:20:53.772Z,3.24
2022-11-16T05:23:40.427Z,3.23
2022-11-16T05:26:11.495Z,3.25
2022-11-16T05:28:39.548Z,3.28
2022-11-16T05:31:08.445Z,3.26
2022-11-16T05:33:37.207Z,3.26
2022-11-16T05:36:05.630Z,3.31
2022-11-16T05:38:34.098Z,3.34
2022-11-16T05:41:02.493Z,3.35
2022-11-16T05:43:32.237Z,3.36
2022-11-16T05:46:08.084Z,3.40
2022-11-16T05:48:36.873Z,3.41
2022-11-16T05:51:06.365Z,3.42
2022-11-16T05:53:35.475Z,3.43
2022-11-16T05:56:04.428Z,3.43
2022-11-16T05:58:34.580Z,3.41
2022-11-16T06:01:04.025Z,3.39
2022-11-16T06:03:35.885Z,3.38
2022-11-16T06:06:05.546Z,3.39
2022-11-16T06:08:34.330Z,3.33
2022-11-16T06:11:06.811Z,3.28
2022-11-16T06:13:37.105Z,3.28
2022-11-16T06:16:06.034Z,3.30
2022-11-16T06:18:39.568Z,3.30
2022-11-16T06:21:08.586Z,3.30
2022-11-16T06:23:36.812Z,3.28
2022-11-16T06:26:06.136Z,3.28
2022-11-16T06:28:34.825Z,3.29
2022-11-16T06:31:03.338Z,3.35
2022-11-16T06:33:34.066Z,3.37
2022-11-16T06:36:04.653Z,3.36
2022-11-16T06:38:34.513Z,3.36
2022-11-16T06:41:03.536Z,3.37
2022-11-16T06:43:32.718Z,3.40
2022-11-16T06:46:01.495Z,3.43
2022-11-16T06:48:31.119Z,3.43
2022-11-16T06:50:59.942Z,3.45
2022-11-16T06:53:29.582Z,3.45
2022-11-16T06:56:04.688Z,3.47
2022-11-16T06:58:35.005Z,3.51
2022-11-16T07:01:12.167Z,3.48
2022-11-16T07:03:43.222Z,3.50
2022-11-16T07:06:14.769Z,3.49
2022-11-16T07:08:46.494Z,3.41
2022-11-16T07:11:17.320Z,3.40
2022-11-16T07:13:45.505Z,3.44
2022-11-16T07:16:14.794Z,3.49
2022-11-16T07:18:47.835Z,3.54
2022-11-16T07:21:17.402Z,3.58
2022-11-16T07:23:45.864Z,3.64
2022-11-16T07:26:17.953Z,3.73
2022-11-16T07:28:50.248Z,3.80
2022-11-16T07:31:21.166Z,3.90
2022-11-16T07:34:06.536Z,4.00
2022-11-16T07:37:04.595Z,4.07
2022-11-16T07:39:32.929Z,4.11
2022-11-16T07:42:01.820Z,4.15
2022-11-16T07:44:46.184Z,4.17
2022-11-16T07:47:16.411Z,4.19
2022-11-16T07:49:48.775Z,4.26
2022-11-16T07:52:20.964Z,4.24
2022-11-16T07:55:07.713Z,4.15
2022-11-16T07:57:36.500Z,4.13
2022-11-16T08:00:08.616Z,4.13
2022-11-16T08:02:45.759Z,4.13
2022-11-16T08:05:19.218Z,4.16
2022-11-16T08:07:47.629Z,4.18
2022-11-16T08:10:16.378Z,4.18
2022-11-16T08:12:44.820Z,4.14
2022-11-16T08:15:15.408Z,4.15
2022-11-16T08:17:44.539Z,4.25
2022-11-16T08:20:14.647Z,4.33
2022-11-16T08:22:43.639Z,4.38
2022-11-16T08:25:14.061Z,4.44
2022-11-16T08:27:44.500Z,4.49
2022-11-16T08:30:13.565Z,4.55
2022-11-16T08:32:42.940Z,4.53
2022-11-16T08:35:12.734Z,4.54
2022-11-16T08:37:41.615Z,4.56
2022-11-16T08:40:11.661Z,4.64
2022-11-16T08:42:43.609Z,4.65
2022-11-16T08:45:13.006Z,4.70
2022-11-16T08:47:42.196Z,4.81
2022-11-16T08:50:10.548Z,4.88
2022-11-16T08:52:39.054Z,4.94
2022-11-16T08:55:07.724Z,4.96
2022-11-16T08:57:36.861Z,4.92
2022-11-16T09:00:09.307Z,4.94
2022-11-16T09:02:38.079Z,5.01
2022-11-16T09:05:08.308Z,5.11
2022-11-16T09:07:36.740Z,5.18
2022-11-16T09:10:05.766Z,5.22
2022-11-16T09:12:35.330Z,5.22
2022-11-16T09:15:05.056Z,5.23
2022-11-16T09:17:33.832Z,5.29
2022-11-16T09:20:02.255Z,5.36
2022-11-16T09:22:30.901Z,5.33
2022-11-16T09:24:59.637Z,5.33
2022-11-16T09:27:27.941Z,5.24
2022-11-16T09:29:56.289Z,5.24
2022-11-16T09:32:24.926Z,5.27
2022-11-16T09:34:54.127Z,5.33
2022-11-16T09:37:22.794Z,5.41
2022-11-16T09:39:51.552Z,5.44
2022-11-16T09:42:33.531Z,5.46
2022-11-16T09:45:15.157Z,5.52
2022-11-16T09:47:56.710Z,5.58
2022-11-16T09:50:33.933Z,5.64
2022-11-16T09:53:28.835Z,5.67
2022-11-16T09:56:22.639Z,5.70
2022-11-16T09:59:00.912Z,5.79
2022-11-16T10:02:02.369Z,5.85
2022-11-16T10:04:59.768Z,5.90
2022-11-16T10:07:33.259Z,5.85
2022-11-16T10:10:01.788Z,5.83
2022-11-16T10:13:18.307Z,5.92
2022-11-16T10:16:09.473Z,6.06
2022-11-16T10:18:57.598Z,6.10
2022-11-16T10:21:35.402Z,6.13
2022-11-16T10:24:28.562Z,6.24
2022-11-16T10:26:59.903Z,6.37
2022-11-16T10:29:34.537Z,6.46
2022-11-16T10:32:02.697Z,6.48
2022-11-16T10:35:13.882Z,6.48
2022-11-16T10:37:52.324Z,6.45
2022-11-16T10:40:51.909Z,6.40
2022-11-16T10:43:30.382Z,6.38
2022-11-16T10:46:19.917Z,6.40
2022-11-16T10:49:27.390Z,6.37
2022-11-16T10:51:55.728Z,6.39
2022-11-16T10:54:23.868Z,6.40
2022-11-16T10:57:04.052Z,6.44
2022-11-16T10:59:40.347Z,6.41
2022-11-16T11:02:35.068Z,6.45
2022-11-16T11:05:20.439Z,6.51
2022-11-16T11:08:08.049Z,6.54
2022-11-16T11:10:42.342Z,6.61
2022-11-16T11:13:10.416Z,6.64
2022-11-16T11:15:40.859Z,6.64
2022-11-16T11:18:24.353Z,6.66
2022-11-16T11:21:00.691Z,6.69
2022-11-16T11:23:28.935Z,6.70
2022-11-16T11:26:00.224Z,6.77
2022-11-16T11:28:45.669Z,6.87
2022-11-16T11:31:26.181Z,6.92
2022-11-16T11:34:02.846Z,6.96
2022-11-16T11:36:40.677Z,6.92
2022-11-16T11:39:11.999Z,6.90
2022-11-16T11:41:46.102Z,6.89
2022-11-16T11:44:14.331Z,6.79
2022-11-16T11:49:42.066Z,6.80
2022-11-16T11:52:21.184Z,6.71
2022-11-16T11:54:54.532Z,6.61
2022-11-16T11:57:24.051Z,6.60
2022-11-16T11:59:55.629Z,6.62
2022-11-16T12:02:27.089Z,6.69
2022-11-16T12:05:35.137Z,6.77
2022-11-16T12:08:22.358Z,6.78
2022-11-16T12:10:56.799Z,6.76
2022-11-16T12:13:58.190Z,6.72
2022-11-16T12:16:39.583Z,6.72
2022-11-16T12:19:23.553Z,6.76
2022-11-16T12:22:07.397Z,6.77
2022-11-16T12:24:57.388Z,6.77
2022-11-16T12:27:31.748Z,6.83
2022-11-16T12:30:19.082Z,6.85
2022-11-16T12:33:27.426Z,6.86
2022-11-16T12:36:16.586Z,6.88
2022-11-16T12:39:13.197Z,6.90
2022-11-16T12:41:41.317Z,6.97
2022-11-16T12:44:13.557Z,7.00
2022-11-16T12:47:00.994Z,7.01
2022-11-16T12:50:14.512Z,7.02
2022-11-16T12:53:28.171Z,7.06
2022-11-16T12:56:29.779Z,7.05
2022-11-16T12:59:27.655Z,7.01
2022-11-16T13:02:14.865Z,6.98
2022-11-16T13:04:53.138Z,6.95
2022-11-16T13:07:28.215Z,6.95
2022-11-16T13:10:04.128Z,6.96
2022-11-16T13:12:40.483Z,6.95
2022-11-16T13:15:19.470Z,6.96
2022-11-16T13:17:57.260Z,6.98
2022-11-16T13:20:46.390Z,6.98
2022-11-16T13:23:39.856Z,7.02
2022-11-16T13:26:24.405Z,7.02
2022-11-16T13:29:02.233Z,7.02
2022-11-16T13:31:56.433Z,7.01
2022-11-16T13:34:29.426Z,7.01
2022-11-16T13:36:57.999Z,6.99
2022-11-16T13:40:05.356Z,6.95
2022-11-16T13:42:39.041Z,6.90
2022-11-16T13:45:16.789Z,6.87
2022-11-16T13:47:54.315Z,6.87
2022-11-16T13:50:38.185Z,6.89
2022-11-16T13:56:18.304Z,6.91
2022-11-16T13:58:50.301Z,6.91
2022-11-16T14:01:19.452Z,6.91
2022-11-16T14:04:12.669Z,6.89
2022-11-16T14:06:44.017Z,6.88
2022-11-16T14:09:44.990Z,6.86
2022-11-16T14:12:39.132Z,6.89
2022-11-16T14:15:18.737Z,6.92
2022-11-16T14:17:57.016Z,6.93
2022-11-16T14:20:35.091Z,6.92
2022-11-16T14:23:22.737Z,6.90
2022-11-16T14:25:57.311Z,6.86
2022-11-16T14:28:53.446Z,6.83
2022-11-16T14:31:28.276Z,6.79
2022-11-16T14:34:00.385Z,6.71
2022-11-16T14:36:41.944Z,6.66
2022-11-16T14:39:28.379Z,6.62
2022-11-16T14:42:00.947Z,6.57
2022-11-16T14:44:34.246Z,6.54
2022-11-16T14:47:04.118Z,6.50
2022-11-16T14:49:36.491Z,6.47
2022-11-16T14:52:08.483Z,6.47
2022-11-16T14:54:42.692Z,6.46
2022-11-16T14:57:22.722Z,6.44
2022-11-16T15:00:10.790Z,6.43
2022-11-16T15:02:40.504Z,6.38
2022-11-16T15:05:19.246Z,6.33
2022-11-16T15:07:52.654Z,6.31
2022-11-16T15:10:25.689Z,6.29
2022-11-16T15:12:56.621Z,6.29
2022-11-16T15:15:33.518Z,6.28
2022-11-16T15:18:07.820Z,6.29
2022-11-16T15:20:46.993Z,6.29
2022-11-16T15:23:16.796Z,6.25
2022-11-16T15:25:58.017Z,6.23
2022-11-16T15:28:30.062Z,6.21
2022-11-16T15:31:02.689Z,6.20
2022-11-16T15:33:36.730Z,6.20
2022-11-16T15:36:25.685Z,6.21
2022-11-16T15:38:56.880Z,6.22
2022-11-16T15:41:29.558Z,6.21
2022-11-16T15:44:13.932Z,6.21
2022-11-16T15:46:56.770Z,6.21
2022-11-16T15:49:41.449Z,6.21
2022-11-16T15:52:12.548Z,6.20
2022-11-16T15:54:59.937Z,6.18
2022-11-16T15:57:28.714Z,6.19
2022-11-16T15:59:58.300Z,6.17
2022-11-16T16:02:30.604Z,6.19
2022-11-16T16:05:01.288Z,6.19
2022-11-16T16:07:45.776Z,6.20
2022-11-16T16:10:20.893Z,6.23
2022-11-16T16:12:58.447Z,6.25
2022-11-16T16:15:34.520Z,6.27
2022-11-16T16:18:41.592Z,6.31
2022-11-16T16:21:13.538Z,6.32
2022-11-16T16:23:56.495Z,6.29
2022-11-16T16:26:38.852Z,6.26
2022-11-16T16:29:08.360Z,6.24
2022-11-16T16:31:37.374Z,6.23
2022-11-16T16:34:12.557Z,6.21
2022-11-16T16:36:44.486Z,6.21
2022-11-16T16:39:13.236Z,6.22
2022-11-16T16:41:42.014Z,6.23
2022-11-16T16:44:16.021Z,6.23
2022-11-16T16:46:45.653Z,6.22
2022-11-16T16:49:14.699Z,6.23
2022-11-16T16:51:43.652Z,6.25
2022-11-16T16:54:15.252Z,6.24
2022-11-16T16:56:44.469Z,6.22
2022-11-16T16:59:14.487Z,6.21
2022-11-16T17:01:43.367Z,6.23
2022-11-16T17:04:11.863Z,6.27
2022-11-16T17:06:46.230Z,6.29
2022-11-16T17:09:15.163Z,6.28
2022-11-16T17:11:43.465Z,6.26
2022-11-16T17:14:12.894Z,6.24
2022-11-16T17:16:41.540Z,6.23
2022-11-16T17:19:09.977Z,6.22
2022-11-16T17:21:38.367Z,6.22
2022-11-16T17:24:06.932Z,6.21
2022-11-16T17:26:35.755Z,6.19
2022-11-16T17:29:04.168Z,6.21
2022-11-16T17:31:32.346Z,6.22
2022-11-16T17:34:01.003Z,6.22
2022-11-16T17:36:29.807Z,6.21
2022-11-16T17:38:59.000Z,6.22
2022-11-16T17:41:28.549Z,6.23
2022-11-16T17:43:57.311Z,6.24
2022-11-16T17:46:26.373Z,6.24
2022-11-16T17:48:55.145Z,6.21
2022-11-16T17:51:25.439Z,6.23
2022-11-16T17:53:53.881Z,6.24
2022-11-16T17:56:26.152Z,6.25
2022-11-16T17:58:58.567Z,6.23
2022-11-16T18:01:28.766Z,6.21
2022-11-16T18:03:58.013Z,6.22
2022-11-16T18:06:27.538Z,6.22
2022-11-16T18:08:57.285Z,6.22
2022-11-16T18:11:27.266Z,6.21
2022-11-16T18:13:58.440Z,6.20
2022-11-16T18:16:30.574Z,6.18
2022-11-16T18:19:01.528Z,6.18
2022-11-16T18:21:30.363Z,6.19
2022-11-16T18:24:00.626Z,6.18
2022-11-16T18:26:29.836Z,6.18
2022-11-16T18:28:57.873Z,6.18
2022-11-16T18:31:26.834Z,6.19
2022-11-16T18:33:55.594Z,6.20
2022-11-16T18:36:23.749Z,6.21
2022-11-16T18:38:52.459Z,6.20
2022-11-16T18:41:24.346Z,6.21
2022-11-16T18:44:01.448Z,6.21
2022-11-16T18:46:32.193Z,6.20
2022-11-16T18:49:00.561Z,6.17
2022-11-16T18:51:29.558Z,6.18
2022-11-16T18:53:57.843Z,6.19
2022-11-16T18:56:27.199Z,6.21
2022-11-16T18:58:55.749Z,6.24
2022-11-16T19:01:26.291Z,6.28
2022-11-16T19:03:56.697Z,6.30
2022-11-16T19:06:25.052Z,6.30
2022-11-16T19:08:56.537Z,6.33
2022-11-16T19:11:27.130Z,6.34
2022-11-16T19:14:07.903Z,6.32
2022-11-16T19:16:36.597Z,6.29
2022-11-16T19:19:05.640Z,6.29
2022-11-16T19:21:33.954Z,6.23
2022-11-16T19:24:02.073Z,6.23
2022-11-16T19:26:30.421Z,6.21
2022-11-16T19:28:58.772Z,6.19
2022-11-16T19:31:29.003Z,6.18
2022-11-16T19:34:05.799Z,6.19
2022-11-16T19:36:36.320Z,6.17
2022-11-16T19:39:05.468Z,6.17
2022-11-16T19:41:33.668Z,6.20
2022-11-16T19:44:03.018Z,6.23
2022-11-16T19:46:33.938Z,6.26
2022-11-16T19:49:02.924Z,6.30
2022-11-16T19:51:34.015Z,6.32
2022-11-16T19:54:03.142Z,6.31
2022-11-16T19:56:31.797Z,6.30
2022-11-16T19:59:00.891Z,6.28
2022-11-16T20:01:29.933Z,6.25
2022-11-16T20:04:00.571Z,6.23
2022-11-16T20:06:31.988Z,6.23
2022-11-16T20:09:04.301Z,6.21
2022-11-16T20:11:36.520Z,6.20
2022-11-16T20:14:07.056Z,6.19
2022-11-16T20:16:39.240Z,6.20
2022-11-16T20:19:09.480Z,6.21
2022-11-16T20:21:41.348Z,6.21
2022-11-16T20:24:14.938Z,6.24
2022-11-16T20:26:48.712Z,6.24
2022-11-16T20:29:18.672Z,6.26
2022-11-16T20:31:47.033Z,6.28
2022-11-16T20:34:17.862Z,6.29
2022-11-16T20:36:47.357Z,6.31
2022-11-16T20:39:17.458Z,6.33
2022-11-16T20:41:46.411Z,6.36
2022-11-16T20:44:26.737Z,6.36
2022-11-16T20:46:55.137Z,6.35
2022-11-16T20:49:23.521Z,6.35
2022-11-16T20:51:51.998Z,6.36
2022-11-16T20:54:20.116Z,6.34
2022-11-16T20:56:51.119Z,6.35
2022-11-16T20:59:19.632Z,6.35
2022-11-16T21:01:49.003Z,6.36
2022-11-16T21:04:17.291Z,6.35
2022-11-16T21:06:45.518Z,6.35
2022-11-16T21:09:15.722Z,6.36
2022-11-16T21:12:02.169Z,6.39
2022-11-16T21:14:30.183Z,6.39
2022-11-16T21:16:58.113Z,6.39
2022-11-16T21:19:26.226Z,6.38
2022-11-16T21:21:54.491Z,6.38
2022-11-16T21:24:24.974Z,6.40
2022-11-16T21:26:53.430Z,6.42
2022-11-16T21:29:25.940Z,6.41
2022-11-16T21:31:54.258Z,6.39
2022-11-16T21:34:24.503Z,6.41
2022-11-16T21:36:52.510Z,6.42
2022-11-16T21:39:20.599Z,6.41
2022-11-16T21:41:48.422Z,6.39
2022-11-16T21:44:16.448Z,6.36
2022-11-16T21:46:44.420Z,6.35
2022-11-16T21:49:12.275Z,6.34
2022-11-16T21:51:40.239Z,6.36
2022-11-16T21:54:08.274Z,6.37
2022-11-16T21:56:36.303Z,6.36
2022-11-16T21:59:04.443Z,6.35
2022-11-16T22:01:52.714Z,6.34
2022-11-16T22:04:39.839Z,6.37
2022-11-16T22:07:33.884Z,6.40
2022-11-16T22:10:07.432Z,6.39
2022-11-16T22:12:36.020Z,6.39
2022-11-16T22:15:06.887Z,6.40
2022-11-16T22:17:34.857Z,6.39
2022-11-16T22:20:03.562Z,6.41
2022-11-16T22:22:31.855Z,6.42
2022-11-16T22:24:59.966Z,6.39
2022-11-16T22:27:27.995Z,6.37
2022-11-16T22:29:56.021Z,6.37
2022-11-16T22:32:23.936Z,6.38
2022-11-16T22:34:52.229Z,6.37
2022-11-16T22:37:20.175Z,6.37
2022-11-16T22:39:48.447Z,6.39
2022-11-16T22:42:16.421Z,6.44
2022-11-16T22:44:44.335Z,6.46
2022-11-16T22:47:12.385Z,6.48
2022-11-16T22:49:40.397Z,6.48
2022-11-16T22:52:08.372Z,6.48
2022-11-16T22:54:38.914Z,6.47
2022-11-16T22:57:07.039Z,6.49
2022-11-16T22:59:35.042Z,6.54
2022-11-16T23:02:05.966Z,6.55
2022-11-16T23:04:34.380Z,6.54
2022-11-16T23:07:02.855Z,6.50
2022-11-16T23:09:32.164Z,6.49
2022-11-16T23:12:18.909Z,6.49
2022-11-16T23:15:05.501Z,6.51
2022-11-16T23:17:33.369Z,6.50
2022-11-16T23:20:19.864Z,6.48
2022-11-16T23:23:06.327Z,6.47
2022-11-16T23:25:52.954Z,6.46
2022-11-16T23:28:21.016Z,6.44
2022-11-16T23:30:49.207Z,6.42
2022-11-16T23:33:17.139Z,6.40
2022-11-16T23:35:45.135Z,6.38
2022-11-16T23:38:13.168Z,6.38
2022-11-16T23:40:41.380Z,6.38
2022-11-16T23:43:29.432Z,6.36
2022-11-16T23:45:57.348Z,6.34
2022-11-16T23:48:25.347Z,6.32
2022-11-16T23:50:53.248Z,6.30
2022-11-16T23:53:21.367Z,6.31
2022-11-16T23:55:49.295Z,6.32
2022-11-16T23:58:17.239Z,6.33
